createdAt,value
2022-10-06T00:02:05.614Z,81.88
2022-10-06T00:07:09.364Z,81.85
2022-10-06T00:12:12.954Z,81.80
2022-10-06T00:17:16.365Z,82.04
2022-10-06T00:22:19.890Z,81.96
2022-10-06T00:27:23.295Z,81.95
2022-10-06T00:32:26.612Z,81.95
2022-10-06T00:37:35.038Z,82.01
2022-10-06T00:43:05.588Z,82.15
2022-10-06T00:48:31.135Z,82.25
2022-10-06T00:53:35.902Z,82.29
2022-10-06T00:58:39.483Z,82.24
2022-10-06T01:03:55.796Z,82.29
2022-10-06T01:08:59.315Z,82.36
2022-10-06T01:14:02.664Z,82.33
2022-10-06T01:19:17.409Z,82.42
2022-10-06T01:24:21.343Z,82.55
2022-10-06T01:29:26.186Z,82.54
2022-10-06T01:34:29.638Z,82.51
2022-10-06T01:39:33.114Z,82.57
2022-10-06T01:44:36.449Z,82.74
2022-10-06T01:49:40.654Z,82.82
2022-10-06T01:54:44.070Z,82.86
2022-10-06T01:59:51.553Z,82.87
2022-10-06T02:04:57.965Z,82.92
2022-10-06T02:10:01.791Z,82.97
2022-10-06T02:15:06.485Z,83.14
2022-10-06T02:20:11.486Z,83.29
2022-10-06T02:25:14.878Z,83.14
2022-10-06T02:30:18.257Z,83.15
2022-10-06T02:35:21.729Z,83.10
2022-10-06T02:40:25.035Z,83.09
2022-10-06T02:45:28.754Z,83.14
2022-10-06T02:50:35.035Z,83.30
2022-10-06T02:55:38.656Z,83.32
2022-10-06T03:00:41.971Z,83.38
2022-10-06T03:05:45.381Z,83.46
2022-10-06T03:10:48.692Z,83.46
2022-10-06T03:15:52.064Z,83.63
2022-10-06T03:21:01.558Z,83.59
2022-10-06T03:26:04.872Z,83.72
2022-10-06T03:31:09.099Z,83.75
2022-10-06T03:36:17.677Z,83.88
2022-10-06T03:41:27.911Z,83.71
2022-10-06T03:46:35.102Z,83.79
2022-10-06T03:51:42.013Z,83.86
2022-10-06T03:56:45.628Z,84.13
2022-10-06T04:01:49.588Z,84.09
2022-10-06T04:06:53.075Z,84.12
2022-10-06T04:11:56.901Z,84.31
2022-10-06T04:17:01.798Z,84.45
2022-10-06T04:22:05.260Z,84.41
2022-10-06T04:27:27.104Z,84.44
2022-10-06T04:32:30.520Z,84.44
2022-10-06T04:37:33.833Z,84.57
2022-10-06T04:42:37.761Z,84.64
2022-10-06T04:47:41.586Z,84.55
2022-10-06T04:52:45.405Z,84.43
2022-10-06T04:57:49.538Z,84.42
2022-10-06T05:02:56.402Z,84.42
2022-10-06T05:07:59.756Z,84.44
2022-10-06T05:13:04.089Z,84.46
2022-10-06T05:18:07.965Z,84.43
2022-10-06T05:23:11.349Z,84.27
2022-10-06T05:28:14.910Z,84.28
2022-10-06T05:33:18.351Z,84.18
2022-10-06T05:38:22.993Z,84.26
2022-10-06T05:43:26.319Z,84.14
2022-10-06T05:48:31.352Z,84.10
2022-10-06T05:53:37.288Z,84.04
2022-10-06T05:58:43.744Z,83.94
2022-10-06T06:04:00.846Z,83.88
2022-10-06T06:09:11.894Z,83.82
2022-10-06T06:14:18.790Z,83.75
2022-10-06T06:19:27.064Z,83.64
2022-10-06T06:24:32.529Z,83.56
2022-10-06T06:29:35.796Z,83.42
2022-10-06T06:34:39.240Z,83.29
2022-10-06T06:39:42.543Z,83.29
2022-10-06T06:44:46.178Z,83.28
2022-10-06T06:49:49.546Z,83.21
2022-10-06T06:54:52.911Z,83.17
2022-10-06T06:59:57.362Z,83.04
2022-10-06T07:05:00.719Z,82.96
2022-10-06T07:10:05.133Z,82.82
2022-10-06T07:15:28.268Z,82.68
2022-10-06T07:20:50.383Z,82.56
2022-10-06T07:25:53.837Z,82.46
2022-10-06T07:31:00.835Z,82.40
2022-10-06T07:36:04.661Z,82.19
2022-10-06T07:41:18.831Z,82.06
2022-10-06T07:46:22.857Z,81.68
2022-10-06T07:51:27.540Z,81.42
2022-10-06T07:56:32.034Z,81.25
2022-10-06T08:01:35.606Z,81.23
2022-10-06T08:06:40.088Z,81.15
2022-10-06T08:11:45.251Z,80.97
2022-10-06T08:16:48.871Z,80.67
2022-10-06T08:21:52.387Z,80.22
2022-10-06T08:26:55.692Z,80.01
2022-10-06T08:31:59.729Z,79.56
2022-10-06T08:37:19.441Z,79.05
2022-10-06T08:42:49.079Z,78.67
2022-10-06T08:48:14.987Z,78.08
2022-10-06T08:54:00.484Z,77.67
2022-10-06T08:59:05.450Z,76.81
2022-10-06T09:04:23.492Z,75.94
2022-10-06T09:10:08.582Z,76.00
2022-10-06T09:15:29.235Z,75.34
2022-10-06T09:20:44.436Z,74.75
2022-10-06T09:25:47.970Z,73.92
2022-10-06T09:30:55.287Z,73.72
2022-10-06T09:36:11.282Z,73.61
2022-10-06T09:41:16.656Z,73.07
2022-10-06T09:46:29.444Z,73.19
2022-10-06T09:51:36.717Z,72.32
2022-10-06T09:56:45.337Z,71.86
2022-10-06T10:01:55.584Z,71.13
2022-10-06T10:07:30.524Z,70.96
2022-10-06T10:12:34.409Z,71.15
2022-10-06T10:17:54.724Z,71.10
2022-10-06T10:23:03.665Z,71.18
2022-10-06T10:29:15.331Z,70.89
2022-10-06T10:35:07.019Z,68.08
2022-10-06T10:40:51.804Z,67.35
2022-10-06T10:46:32.064Z,66.86
2022-10-06T10:51:53.931Z,66.14
2022-10-06T10:56:59.266Z,65.35
2022-10-06T11:02:17.193Z,65.29
2022-10-06T11:07:44.163Z,65.14
2022-10-06T11:13:24.601Z,65.65
2022-10-06T11:18:42.205Z,65.50
2022-10-06T11:24:37.978Z,65.83
2022-10-06T11:30:12.452Z,65.63
2022-10-06T11:35:27.139Z,65.65
2022-10-06T11:41:10.467Z,64.96
2022-10-06T11:46:13.949Z,64.08
2022-10-06T11:51:21.784Z,63.26
2022-10-06T11:56:38.210Z,62.42
2022-10-06T12:01:51.216Z,62.38
2022-10-06T12:06:57.988Z,61.71
2022-10-06T12:12:19.579Z,61.96
2022-10-06T12:17:40.925Z,61.33
2022-10-06T12:23:03.164Z,59.52
2022-10-06T12:28:36.761Z,57.95
2022-10-06T12:33:43.164Z,57.71
2022-10-06T12:39:25.087Z,57.92
2022-10-06T12:44:43.346Z,58.03
2022-10-06T12:49:54.195Z,58.04
2022-10-06T12:55:23.859Z,57.10
2022-10-06T13:00:42.738Z,56.90
2022-10-06T13:05:57.730Z,56.58
2022-10-06T13:11:22.644Z,56.87
2022-10-06T13:16:31.866Z,56.67
2022-10-06T13:21:35.951Z,56.43
2022-10-06T13:26:41.113Z,55.30
2022-10-06T13:31:52.939Z,54.49
2022-10-06T13:36:59.394Z,54.40
2022-10-06T13:42:10.621Z,53.24
2022-10-06T13:47:30.142Z,53.17
2022-10-06T13:52:44.687Z,51.94
2022-10-06T13:57:49.650Z,52.07
2022-10-06T14:03:05.579Z,51.90
2022-10-06T14:08:11.882Z,51.33
2022-10-06T14:13:57.376Z,51.56
2022-10-06T14:19:05.342Z,51.39
2022-10-06T14:24:19.203Z,52.23
2022-10-06T14:29:23.543Z,52.20
2022-10-06T14:34:29.177Z,52.49
2022-10-06T14:39:32.874Z,51.55
2022-10-06T14:44:38.338Z,51.88
2022-10-06T14:49:41.747Z,52.53
2022-10-06T14:54:45.264Z,52.69
2022-10-06T14:59:48.885Z,53.09
2022-10-06T15:04:52.191Z,53.44
2022-10-06T15:09:57.436Z,53.78
2022-10-06T15:15:00.870Z,54.10
2022-10-06T15:20:05.368Z,54.60
2022-10-06T15:25:30.119Z,54.74
2022-10-06T15:30:33.533Z,54.74
2022-10-06T15:35:37.058Z,54.88
2022-10-06T15:40:40.573Z,55.06
2022-10-06T15:45:55.604Z,55.49
2022-10-06T15:50:59.324Z,55.98
2022-10-06T15:56:03.096Z,56.74
2022-10-06T16:01:11.488Z,57.29
2022-10-06T16:06:17.405Z,58.18
2022-10-06T16:11:21.226Z,58.79
2022-10-06T16:16:24.758Z,59.49
2022-10-06T16:21:33.634Z,59.92
2022-10-06T16:26:37.532Z,60.26
2022-10-06T16:31:41.408Z,60.79
2022-10-06T16:36:45.768Z,61.27
2022-10-06T16:41:50.967Z,61.67
2022-10-06T16:46:54.486Z,62.10
2022-10-06T16:51:58.251Z,62.62
2022-10-06T16:57:06.905Z,63.11
2022-10-06T17:02:10.321Z,63.60
2022-10-06T17:07:13.630Z,64.00
2022-10-06T17:12:17.046Z,64.49
2022-10-06T17:17:20.654Z,64.90
2022-10-06T17:22:24.070Z,65.14
2022-10-06T17:27:33.872Z,65.30
2022-10-06T17:32:39.785Z,65.54
2022-10-06T17:37:43.529Z,65.65
2022-10-06T17:42:47.042Z,65.75
2022-10-06T17:47:51.995Z,66.14
2022-10-06T17:52:55.460Z,66.34
2022-10-06T17:57:59.229Z,66.58
2022-10-06T18:03:02.650Z,66.89
2022-10-06T18:08:08.923Z,67.20
2022-10-06T18:13:12.238Z,67.63
2022-10-06T18:18:16.033Z,67.86
2022-10-06T18:23:19.577Z,68.07
2022-10-06T18:28:22.992Z,68.22
2022-10-06T18:38:52.860Z,68.58
2022-10-06T18:43:56.275Z,68.59
2022-10-06T18:49:10.751Z,68.66
2022-10-06T18:54:24.099Z,69.03
2022-10-06T18:59:31.804Z,69.36
2022-10-06T19:04:36.248Z,69.61
2022-10-06T19:09:45.344Z,70.03
2022-10-06T19:14:50.420Z,70.35
2022-10-06T19:19:55.502Z,70.45
2022-10-06T19:24:58.910Z,70.67
2022-10-06T19:30:02.428Z,70.83
2022-10-06T19:35:10.082Z,70.96
2022-10-06T19:40:13.963Z,71.21
2022-10-06T19:45:20.895Z,71.37
2022-10-06T19:50:24.693Z,71.56
2022-10-06T19:55:28.878Z,71.74
2022-10-06T20:00:32.210Z,71.88
2022-10-06T20:05:38.586Z,71.94
2022-10-06T20:10:41.922Z,72.11
2022-10-06T20:15:45.238Z,72.36
2022-10-06T20:20:59.059Z,72.40
2022-10-06T20:26:22.719Z,72.68
2022-10-06T20:31:34.288Z,72.79
2022-10-06T20:36:39.190Z,72.75
2022-10-06T20:41:44.581Z,72.85
2022-10-06T20:46:48.007Z,73.04
2022-10-06T20:51:52.558Z,73.01
2022-10-06T20:56:57.088Z,73.54
2022-10-06T21:02:01.272Z,73.38
2022-10-06T21:07:06.211Z,73.16
2022-10-06T21:12:09.794Z,73.16
2022-10-06T21:17:13.411Z,73.61
2022-10-06T21:22:16.890Z,74.11
2022-10-06T21:27:21.368Z,74.50
2022-10-06T21:32:25.088Z,74.44
2022-10-06T21:37:28.506Z,74.49
2022-10-06T21:42:32.023Z,74.44
2022-10-06T21:47:35.429Z,74.56
2022-10-06T21:52:39.130Z,74.53
2022-10-06T21:57:42.808Z,74.60
2022-10-06T22:02:46.550Z,74.58
2022-10-06T22:07:50.008Z,74.76
2022-10-06T22:12:53.419Z,74.93
2022-10-06T22:17:56.797Z,74.99
2022-10-06T22:23:04.038Z,74.94
2022-10-06T22:28:08.391Z,74.90
2022-10-06T22:33:11.911Z,75.13
2022-10-06T22:38:15.314Z,75.40
2022-10-06T22:43:18.818Z,75.58
2022-10-06T22:48:22.704Z,75.68
2022-10-06T22:53:30.561Z,75.76
2022-10-06T22:58:34.079Z,75.93
2022-10-06T23:03:38.250Z,76.15
2022-10-06T23:08:42.235Z,76.21
2022-10-06T23:13:46.937Z,76.32
2022-10-06T23:18:50.671Z,76.35
2022-10-06T23:23:59.426Z,76.53
2022-10-06T23:29:04.291Z,76.80
2022-10-06T23:34:07.912Z,76.91
2022-10-06T23:39:11.479Z,76.97
2022-10-06T23:44:14.866Z,76.97
2022-10-06T23:49:18.252Z,77.00
2022-10-06T23:54:21.771Z,77.01
2022-10-06T23:59:26.517Z,77.07
